sensor_id;sensor_type;location;lat;lon;timestamp;P1;durP1;ratioP1;P2;durP2;ratioP2
10517;SDS011;5307;42.548;22.968;2022-11-03T00:00:04;15.82;;;7.38;;
10517;SDS011;5307;42.548;22.968;2022-11-03T00:02:31;17.42;;;7.40;;
10517;SDS011;5307;42.548;22.968;2022-11-03T00:04:58;15.07;;;7.43;;
10517;SDS011;5307;42.548;22.968;2022-11-03T00:07:45;22.15;;;7.82;;
10517;SDS011;5307;42.548;22.968;2022-11-03T00:10:12;17.63;;;7.47;;
10517;SDS011;5307;42.548;22.968;2022-11-03T00:12:39;15.60;;;7.30;;
10517;SDS011;5307;42.548;22.968;2022-11-03T00:15:08;20.17;;;7.80;;
10517;SDS011;5307;42.548;22.968;2022-11-03T00:17:35;15.27;;;6.80;;
10517;SDS011;5307;42.548;22.968;2022-11-03T00:20:02;15.27;;;7.10;;
10517;SDS011;5307;42.548;22.968;2022-11-03T00:22:29;13.40;;;6.80;;
10517;SDS011;5307;42.548;22.968;2022-11-03T00:24:57;21.15;;;6.32;;
10517;SDS011;5307;42.548;22.968;2022-11-03T00:27:25;14.75;;;6.35;;
10517;SDS011;5307;42.548;22.968;2022-11-03T00:29:55;16.98;;;6.93;;
10517;SDS011;5307;42.548;22.968;2022-11-03T00:32:23;11.98;;;5.97;;
10517;SDS011;5307;42.548;22.968;2022-11-03T00:34:53;20.85;;;6.85;;
10517;SDS011;5307;42.548;22.968;2022-11-03T00:37:28;14.65;;;5.70;;
10517;SDS011;5307;42.548;22.968;2022-11-03T00:39:54;16.33;;;5.35;;
10517;SDS011;5307;42.548;22.968;2022-11-03T00:42:21;17.17;;;5.50;;
10517;SDS011;5307;42.548;22.968;2022-11-03T00:47:47;13.10;;;5.28;;
10517;SDS011;5307;42.548;22.968;2022-11-03T00:50:32;8.70;;;5.28;;
10517;SDS011;5307;42.548;22.968;2022-11-03T00:52:59;11.40;;;5.03;;
10517;SDS011;5307;42.548;22.968;2022-11-03T00:55:25;10.57;;;5.63;;
10517;SDS011;5307;42.548;22.968;2022-11-03T00:57:52;11.43;;;5.78;;
10517;SDS011;5307;42.548;22.968;2022-11-03T01:00:19;15.32;;;5.63;;
10517;SDS011;5307;42.548;22.968;2022-11-03T01:02:47;19.05;;;5.45;;
10517;SDS011;5307;42.548;22.968;2022-11-03T01:05:14;13.90;;;5.85;;
10517;SDS011;5307;42.548;22.968;2022-11-03T01:08:00;12.00;;;5.40;;
10517;SDS011;5307;42.548;22.968;2022-11-03T01:10:29;13.25;;;5.40;;
10517;SDS011;5307;42.548;22.968;2022-11-03T01:12:56;12.00;;;5.78;;
10517;SDS011;5307;42.548;22.968;2022-11-03T01:15:22;15.15;;;6.00;;
10517;SDS011;5307;42.548;22.968;2022-11-03T01:17:51;16.52;;;5.70;;
10517;SDS011;5307;42.548;22.968;2022-11-03T01:20:17;12.25;;;5.25;;
10517;SDS011;5307;42.548;22.968;2022-11-03T01:22:44;15.90;;;5.97;;
10517;SDS011;5307;42.548;22.968;2022-11-03T01:25:11;10.73;;;6.00;;
10517;SDS011;5307;42.548;22.968;2022-11-03T01:27:38;11.93;;;6.05;;
10517;SDS011;5307;42.548;22.968;2022-11-03T01:30:05;12.55;;;5.40;;
10517;SDS011;5307;42.548;22.968;2022-11-03T01:32:32;12.32;;;5.82;;
10517;SDS011;5307;42.548;22.968;2022-11-03T01:35:01;12.60;;;6.47;;
10517;SDS011;5307;42.548;22.968;2022-11-03T01:37:27;12.38;;;6.53;;
10517;SDS011;5307;42.548;22.968;2022-11-03T01:39:54;12.10;;;6.38;;
10517;SDS011;5307;42.548;22.968;2022-11-03T01:42:21;16.17;;;6.63;;
10517;SDS011;5307;42.548;22.968;2022-11-03T01:44:48;12.98;;;6.82;;
10517;SDS011;5307;42.548;22.968;2022-11-03T01:47:18;23.42;;;10.35;;
10517;SDS011;5307;42.548;22.968;2022-11-03T01:49:51;22.25;;;8.68;;
10517;SDS011;5307;42.548;22.968;2022-11-03T01:52:24;17.70;;;9.73;;
10517;SDS011;5307;42.548;22.968;2022-11-03T01:54:59;18.52;;;7.10;;
10517;SDS011;5307;42.548;22.968;2022-11-03T02:04:06;14.98;;;7.38;;
10517;SDS011;5307;42.548;22.968;2022-11-03T02:06:39;17.55;;;7.40;;
10517;SDS011;5307;42.548;22.968;2022-11-03T02:09:08;16.15;;;6.90;;
10517;SDS011;5307;42.548;22.968;2022-11-03T02:11:35;17.15;;;6.45;;
10517;SDS011;5307;42.548;22.968;2022-11-03T02:14:20;18.60;;;6.72;;
10517;SDS011;5307;42.548;22.968;2022-11-03T02:16:48;22.48;;;6.82;;
10517;SDS011;5307;42.548;22.968;2022-11-03T02:19:19;15.82;;;6.47;;
10517;SDS011;5307;42.548;22.968;2022-11-03T02:21:58;19.02;;;7.47;;
10517;SDS011;5307;42.548;22.968;2022-11-03T02:24:37;14.30;;;6.65;;
10517;SDS011;5307;42.548;22.968;2022-11-03T02:27:15;14.65;;;7.18;;
10517;SDS011;5307;42.548;22.968;2022-11-03T02:29:42;14.13;;;6.55;;
10517;SDS011;5307;42.548;22.968;2022-11-03T02:32:10;18.90;;;7.45;;
10517;SDS011;5307;42.548;22.968;2022-11-03T02:34:46;15.85;;;7.47;;
10517;SDS011;5307;42.548;22.968;2022-11-03T02:37:18;20.00;;;7.43;;
10517;SDS011;5307;42.548;22.968;2022-11-03T02:39:48;10.73;;;6.20;;
10517;SDS011;5307;42.548;22.968;2022-11-03T02:42:21;18.20;;;7.00;;
10517;SDS011;5307;42.548;22.968;2022-11-03T02:44:50;24.38;;;7.18;;
10517;SDS011;5307;42.548;22.968;2022-11-03T02:47:18;15.02;;;7.00;;
10517;SDS011;5307;42.548;22.968;2022-11-03T02:49:49;22.48;;;7.53;;
10517;SDS011;5307;42.548;22.968;2022-11-03T02:52:35;13.32;;;7.47;;
10517;SDS011;5307;42.548;22.968;2022-11-03T02:55:06;18.17;;;7.45;;
10517;SDS011;5307;42.548;22.968;2022-11-03T02:57:39;14.18;;;6.93;;
10517;SDS011;5307;42.548;22.968;2022-11-03T03:00:11;19.05;;;7.45;;
10517;SDS011;5307;42.548;22.968;2022-11-03T03:02:44;18.98;;;7.55;;
10517;SDS011;5307;42.548;22.968;2022-11-03T03:05:21;19.15;;;8.63;;
10517;SDS011;5307;42.548;22.968;2022-11-03T03:07:53;20.00;;;10.98;;
10517;SDS011;5307;42.548;22.968;2022-11-03T03:10:28;21.02;;;12.63;;
10517;SDS011;5307;42.548;22.968;2022-11-03T03:13:00;21.35;;;11.90;;
10517;SDS011;5307;42.548;22.968;2022-11-03T03:15:31;34.47;;;16.05;;
10517;SDS011;5307;42.548;22.968;2022-11-03T03:18:07;37.17;;;16.73;;
10517;SDS011;5307;42.548;22.968;2022-11-03T03:20:40;34.42;;;12.90;;
10517;SDS011;5307;42.548;22.968;2022-11-03T03:23:16;36.28;;;16.38;;
10517;SDS011;5307;42.548;22.968;2022-11-03T03:25:46;33.92;;;15.68;;
10517;SDS011;5307;42.548;22.968;2022-11-03T03:28:19;28.88;;;11.45;;
10517;SDS011;5307;42.548;22.968;2022-11-03T03:30:49;32.20;;;13.10;;
10517;SDS011;5307;42.548;22.968;2022-11-03T03:33:18;27.33;;;12.95;;
10517;SDS011;5307;42.548;22.968;2022-11-03T03:35:47;26.05;;;10.88;;
10517;SDS011;5307;42.548;22.968;2022-11-03T03:38:17;22.42;;;11.35;;
10517;SDS011;5307;42.548;22.968;2022-11-03T03:40:47;18.13;;;9.40;;
10517;SDS011;5307;42.548;22.968;2022-11-03T03:43:18;23.25;;;10.80;;
10517;SDS011;5307;42.548;22.968;2022-11-03T03:45:47;19.85;;;9.88;;
10517;SDS011;5307;42.548;22.968;2022-11-03T03:48:17;21.50;;;9.82;;
10517;SDS011;5307;42.548;22.968;2022-11-03T03:50:44;23.52;;;9.68;;
10517;SDS011;5307;42.548;22.968;2022-11-03T03:53:14;23.80;;;9.13;;
10517;SDS011;5307;42.548;22.968;2022-11-03T03:55:43;17.90;;;9.35;;
10517;SDS011;5307;42.548;22.968;2022-11-03T03:58:13;17.17;;;9.05;;
10517;SDS011;5307;42.548;22.968;2022-11-03T04:00:42;20.15;;;9.25;;
10517;SDS011;5307;42.548;22.968;2022-11-03T04:03:12;19.67;;;9.45;;
10517;SDS011;5307;42.548;22.968;2022-11-03T04:05:41;20.75;;;9.30;;
10517;SDS011;5307;42.548;22.968;2022-11-03T04:08:09;18.17;;;9.05;;
10517;SDS011;5307;42.548;22.968;2022-11-03T04:10:36;20.08;;;8.70;;
10517;SDS011;5307;42.548;22.968;2022-11-03T04:13:04;25.23;;;9.02;;
10517;SDS011;5307;42.548;22.968;2022-11-03T04:15:49;19.80;;;9.52;;
10517;SDS011;5307;42.548;22.968;2022-11-03T04:18:33;22.75;;;9.98;;
10517;SDS011;5307;42.548;22.968;2022-11-03T04:21:17;20.80;;;8.98;;
10517;SDS011;5307;42.548;22.968;2022-11-03T04:24:13;21.00;;;7.78;;
10517;SDS011;5307;42.548;22.968;2022-11-03T04:26:40;21.92;;;8.32;;
10517;SDS011;5307;42.548;22.968;2022-11-03T04:29:08;29.60;;;9.05;;
10517;SDS011;5307;42.548;22.968;2022-11-03T04:31:37;22.50;;;9.48;;
10517;SDS011;5307;42.548;22.968;2022-11-03T04:34:07;21.35;;;8.73;;
10517;SDS011;5307;42.548;22.968;2022-11-03T04:36:37;20.58;;;9.02;;
10517;SDS011;5307;42.548;22.968;2022-11-03T04:39:04;20.20;;;8.85;;
10517;SDS011;5307;42.548;22.968;2022-11-03T04:41:41;18.02;;;8.63;;
10517;SDS011;5307;42.548;22.968;2022-11-03T04:44:09;26.05;;;9.50;;
10517;SDS011;5307;42.548;22.968;2022-11-03T04:46:41;28.38;;;9.57;;
10517;SDS011;5307;42.548;22.968;2022-11-03T04:49:09;21.48;;;9.73;;
10517;SDS011;5307;42.548;22.968;2022-11-03T04:51:41;18.50;;;9.88;;
10517;SDS011;5307;42.548;22.968;2022-11-03T04:54:11;26.38;;;10.13;;
10517;SDS011;5307;42.548;22.968;2022-11-03T04:56:41;32.38;;;11.23;;
10517;SDS011;5307;42.548;22.968;2022-11-03T04:59:09;24.70;;;11.45;;
10517;SDS011;5307;42.548;22.968;2022-11-03T05:01:37;32.20;;;10.80;;
10517;SDS011;5307;42.548;22.968;2022-11-03T05:04:09;22.58;;;9.88;;
10517;SDS011;5307;42.548;22.968;2022-11-03T05:06:38;26.10;;;11.30;;
10517;SDS011;5307;42.548;22.968;2022-11-03T05:09:10;26.48;;;11.48;;
10517;SDS011;5307;42.548;22.968;2022-11-03T05:11:53;30.05;;;11.38;;
10517;SDS011;5307;42.548;22.968;2022-11-03T05:14:21;29.45;;;11.40;;
10517;SDS011;5307;42.548;22.968;2022-11-03T05:16:51;27.92;;;12.10;;
10517;SDS011;5307;42.548;22.968;2022-11-03T05:19:21;37.50;;;11.57;;
10517;SDS011;5307;42.548;22.968;2022-11-03T05:21:51;30.60;;;12.68;;
10517;SDS011;5307;42.548;22.968;2022-11-03T05:24:20;31.33;;;12.93;;
10517;SDS011;5307;42.548;22.968;2022-11-03T05:26:50;33.15;;;12.38;;
10517;SDS011;5307;42.548;22.968;2022-11-03T05:29:18;41.03;;;13.25;;
10517;SDS011;5307;42.548;22.968;2022-11-03T05:31:47;40.95;;;13.65;;
10517;SDS011;5307;42.548;22.968;2022-11-03T05:34:27;34.47;;;13.07;;
10517;SDS011;5307;42.548;22.968;2022-11-03T05:36:58;42.67;;;14.13;;
10517;SDS011;5307;42.548;22.968;2022-11-03T05:39:27;26.08;;;11.52;;
10517;SDS011;5307;42.548;22.968;2022-11-03T05:41:56;29.58;;;11.38;;
10517;SDS011;5307;42.548;22.968;2022-11-03T05:44:27;27.67;;;11.07;;
10517;SDS011;5307;42.548;22.968;2022-11-03T05:47:01;18.02;;;9.85;;
10517;SDS011;5307;42.548;22.968;2022-11-03T05:49:30;32.47;;;10.77;;
10517;SDS011;5307;42.548;22.968;2022-11-03T05:51:57;29.08;;;10.50;;
10517;SDS011;5307;42.548;22.968;2022-11-03T05:54:26;38.85;;;11.88;;
10517;SDS011;5307;42.548;22.968;2022-11-03T05:56:57;58.38;;;13.68;;
10517;SDS011;5307;42.548;22.968;2022-11-03T05:59:25;58.33;;;13.80;;
10517;SDS011;5307;42.548;22.968;2022-11-03T06:01:53;43.42;;;11.27;;
10517;SDS011;5307;42.548;22.968;2022-11-03T06:04:25;34.33;;;11.90;;
10517;SDS011;5307;42.548;22.968;2022-11-03T06:06:57;39.55;;;12.05;;
10517;SDS011;5307;42.548;22.968;2022-11-03T06:09:28;37.17;;;12.10;;
10517;SDS011;5307;42.548;22.968;2022-11-03T06:11:59;82.65;;;31.20;;
10517;SDS011;5307;42.548;22.968;2022-11-03T06:14:28;51.35;;;16.38;;
10517;SDS011;5307;42.548;22.968;2022-11-03T06:16:57;41.55;;;12.98;;
10517;SDS011;5307;42.548;22.968;2022-11-03T06:19:30;43.33;;;14.48;;
10517;SDS011;5307;42.548;22.968;2022-11-03T06:22:04;42.00;;;14.30;;
10517;SDS011;5307;42.548;22.968;2022-11-03T06:24:36;49.03;;;14.82;;
10517;SDS011;5307;42.548;22.968;2022-11-03T06:27:03;49.20;;;14.40;;
10517;SDS011;5307;42.548;22.968;2022-11-03T06:29:38;50.25;;;16.30;;
10517;SDS011;5307;42.548;22.968;2022-11-03T06:32:08;46.88;;;17.00;;
10517;SDS011;5307;42.548;22.968;2022-11-03T06:34:39;43.85;;;14.40;;
10517;SDS011;5307;42.548;22.968;2022-11-03T06:37:12;29.52;;;14.07;;
10517;SDS011;5307;42.548;22.968;2022-11-03T06:39:43;42.53;;;14.68;;
10517;SDS011;5307;42.548;22.968;2022-11-03T06:42:11;42.53;;;14.60;;
10517;SDS011;5307;42.548;22.968;2022-11-03T06:44:39;39.33;;;15.35;;
10517;SDS011;5307;42.548;22.968;2022-11-03T06:47:13;50.85;;;16.95;;
10517;SDS011;5307;42.548;22.968;2022-11-03T06:49:46;54.67;;;17.27;;
10517;SDS011;5307;42.548;22.968;2022-11-03T06:52:19;48.90;;;16.38;;
10517;SDS011;5307;42.548;22.968;2022-11-03T06:54:50;32.88;;;13.38;;
10517;SDS011;5307;42.548;22.968;2022-11-03T06:57:21;30.58;;;13.23;;
10517;SDS011;5307;42.548;22.968;2022-11-03T06:59:48;41.35;;;15.93;;
10517;SDS011;5307;42.548;22.968;2022-11-03T07:02:22;34.80;;;16.33;;
10517;SDS011;5307;42.548;22.968;2022-11-03T07:05:09;39.97;;;18.58;;
10517;SDS011;5307;42.548;22.968;2022-11-03T07:07:48;41.45;;;18.48;;
10517;SDS011;5307;42.548;22.968;2022-11-03T07:10:17;51.38;;;18.75;;
10517;SDS011;5307;42.548;22.968;2022-11-03T07:12:44;51.45;;;18.40;;
10517;SDS011;5307;42.548;22.968;2022-11-03T07:15:19;47.97;;;17.95;;
10517;SDS011;5307;42.548;22.968;2022-11-03T07:17:52;42.22;;;18.33;;
10517;SDS011;5307;42.548;22.968;2022-11-03T07:20:19;41.58;;;17.63;;
10517;SDS011;5307;42.548;22.968;2022-11-03T07:22:48;42.20;;;20.70;;
10517;SDS011;5307;42.548;22.968;2022-11-03T07:25:17;46.40;;;18.20;;
10517;SDS011;5307;42.548;22.968;2022-11-03T07:27:45;57.72;;;19.58;;
10517;SDS011;5307;42.548;22.968;2022-11-03T07:30:17;41.50;;;17.58;;
10517;SDS011;5307;42.548;22.968;2022-11-03T07:32:47;47.78;;;18.05;;
10517;SDS011;5307;42.548;22.968;2022-11-03T07:35:24;33.45;;;16.80;;
10517;SDS011;5307;42.548;22.968;2022-11-03T07:37:57;42.45;;;16.58;;
10517;SDS011;5307;42.548;22.968;2022-11-03T07:40:30;35.33;;;15.95;;
10517;SDS011;5307;42.548;22.968;2022-11-03T07:42:59;32.30;;;15.75;;
10517;SDS011;5307;42.548;22.968;2022-11-03T07:45:37;30.60;;;15.23;;
10517;SDS011;5307;42.548;22.968;2022-11-03T07:48:13;35.15;;;14.43;;
10517;SDS011;5307;42.548;22.968;2022-11-03T07:50:44;35.70;;;14.13;;
10517;SDS011;5307;42.548;22.968;2022-11-03T07:53:15;31.75;;;14.40;;
10517;SDS011;5307;42.548;22.968;2022-11-03T07:55:45;31.92;;;14.05;;
10517;SDS011;5307;42.548;22.968;2022-11-03T07:58:16;26.25;;;14.00;;
10517;SDS011;5307;42.548;22.968;2022-11-03T08:00:47;24.05;;;13.48;;
10517;SDS011;5307;42.548;22.968;2022-11-03T08:03:21;46.15;;;15.80;;
10517;SDS011;5307;42.548;22.968;2022-11-03T08:05:52;35.00;;;15.15;;
10517;SDS011;5307;42.548;22.968;2022-11-03T08:08:21;33.72;;;14.93;;
10517;SDS011;5307;42.548;22.968;2022-11-03T08:10:49;31.88;;;14.93;;
10517;SDS011;5307;42.548;22.968;2022-11-03T08:13:16;31.20;;;14.82;;
10517;SDS011;5307;42.548;22.968;2022-11-03T08:15:42;33.42;;;13.63;;
10517;SDS011;5307;42.548;22.968;2022-11-03T08:18:09;33.55;;;14.70;;
10517;SDS011;5307;42.548;22.968;2022-11-03T08:20:36;36.28;;;14.65;;
10517;SDS011;5307;42.548;22.968;2022-11-03T08:23:03;32.92;;;14.48;;
10517;SDS011;5307;42.548;22.968;2022-11-03T08:32:42;27.83;;;13.52;;
10517;SDS011;5307;42.548;22.968;2022-11-03T08:35:09;29.63;;;13.23;;
10517;SDS011;5307;42.548;22.968;2022-11-03T08:37:36;28.25;;;12.35;;
10517;SDS011;5307;42.548;22.968;2022-11-03T08:40:03;30.30;;;12.18;;
10517;SDS011;5307;42.548;22.968;2022-11-03T08:42:30;26.48;;;12.18;;
10517;SDS011;5307;42.548;22.968;2022-11-03T08:44:57;24.70;;;13.10;;
10517;SDS011;5307;42.548;22.968;2022-11-03T08:47:25;22.27;;;12.18;;
10517;SDS011;5307;42.548;22.968;2022-11-03T08:49:53;27.35;;;12.00;;
10517;SDS011;5307;42.548;22.968;2022-11-03T08:52:20;28.92;;;12.73;;
10517;SDS011;5307;42.548;22.968;2022-11-03T08:54:47;23.23;;;12.43;;
10517;SDS011;5307;42.548;22.968;2022-11-03T08:57:13;25.45;;;11.02;;
10517;SDS011;5307;42.548;22.968;2022-11-03T08:59:40;22.98;;;10.75;;
10517;SDS011;5307;42.548;22.968;2022-11-03T09:02:07;24.67;;;11.13;;
10517;SDS011;5307;42.548;22.968;2022-11-03T09:04:34;25.85;;;11.15;;
10517;SDS011;5307;42.548;22.968;2022-11-03T09:07:02;24.65;;;11.18;;
10517;SDS011;5307;42.548;22.968;2022-11-03T09:09:30;26.17;;;11.05;;
10517;SDS011;5307;42.548;22.968;2022-11-03T09:11:57;26.67;;;10.88;;
10517;SDS011;5307;42.548;22.968;2022-11-03T09:14:23;22.02;;;11.40;;
10517;SDS011;5307;42.548;22.968;2022-11-03T09:16:50;26.13;;;10.60;;
10517;SDS011;5307;42.548;22.968;2022-11-03T09:19:17;26.38;;;10.70;;
10517;SDS011;5307;42.548;22.968;2022-11-03T09:21:44;22.30;;;9.95;;
10517;SDS011;5307;42.548;22.968;2022-11-03T09:24:12;30.35;;;9.93;;
10517;SDS011;5307;42.548;22.968;2022-11-03T09:26:39;25.38;;;9.55;;
10517;SDS011;5307;42.548;22.968;2022-11-03T09:29:05;24.08;;;9.93;;
10517;SDS011;5307;42.548;22.968;2022-11-03T09:31:32;33.50;;;9.75;;
10517;SDS011;5307;42.548;22.968;2022-11-03T09:33:59;19.65;;;9.60;;
10517;SDS011;5307;42.548;22.968;2022-11-03T09:36:26;27.98;;;9.57;;
10517;SDS011;5307;42.548;22.968;2022-11-03T09:38:52;20.98;;;8.55;;
10517;SDS011;5307;42.548;22.968;2022-11-03T09:41:21;18.30;;;7.90;;
10517;SDS011;5307;42.548;22.968;2022-11-03T09:43:48;22.42;;;8.68;;
10517;SDS011;5307;42.548;22.968;2022-11-03T09:46:15;19.38;;;7.13;;
10517;SDS011;5307;42.548;22.968;2022-11-03T09:48:44;13.57;;;6.55;;
10517;SDS011;5307;42.548;22.968;2022-11-03T09:51:13;20.05;;;7.13;;
10517;SDS011;5307;42.548;22.968;2022-11-03T09:53:44;18.75;;;6.47;;
10517;SDS011;5307;42.548;22.968;2022-11-03T09:56:11;17.50;;;7.40;;
10517;SDS011;5307;42.548;22.968;2022-11-03T09:58:39;18.52;;;7.00;;
10517;SDS011;5307;42.548;22.968;2022-11-03T10:01:08;14.82;;;6.22;;
10517;SDS011;5307;42.548;22.968;2022-11-03T10:03:35;16.08;;;6.57;;
10517;SDS011;5307;42.548;22.968;2022-11-03T10:06:03;21.35;;;7.30;;
10517;SDS011;5307;42.548;22.968;2022-11-03T10:08:31;21.55;;;6.32;;
10517;SDS011;5307;42.548;22.968;2022-11-03T10:11:01;15.15;;;5.10;;
10517;SDS011;5307;42.548;22.968;2022-11-03T10:13:32;14.63;;;4.40;;
10517;SDS011;5307;42.548;22.968;2022-11-03T10:16:02;14.23;;;4.45;;
10517;SDS011;5307;42.548;22.968;2022-11-03T10:18:32;12.38;;;4.72;;
10517;SDS011;5307;42.548;22.968;2022-11-03T10:21:01;14.20;;;4.97;;
10517;SDS011;5307;42.548;22.968;2022-11-03T10:23:30;10.57;;;4.47;;
10517;SDS011;5307;42.548;22.968;2022-11-03T10:25:58;14.25;;;4.63;;
10517;SDS011;5307;42.548;22.968;2022-11-03T10:28:35;16.50;;;4.75;;
10517;SDS011;5307;42.548;22.968;2022-11-03T10:31:05;12.93;;;4.53;;
10517;SDS011;5307;42.548;22.968;2022-11-03T10:33:34;21.20;;;5.22;;
10517;SDS011;5307;42.548;22.968;2022-11-03T10:36:02;10.70;;;3.40;;
10517;SDS011;5307;42.548;22.968;2022-11-03T10:38:31;17.77;;;3.97;;
10517;SDS011;5307;42.548;22.968;2022-11-03T10:41:08;11.90;;;3.25;;
10517;SDS011;5307;42.548;22.968;2022-11-03T10:43:37;18.60;;;3.90;;
10517;SDS011;5307;42.548;22.968;2022-11-03T10:46:10;18.08;;;3.38;;
10517;SDS011;5307;42.548;22.968;2022-11-03T10:48:39;11.85;;;2.92;;
10517;SDS011;5307;42.548;22.968;2022-11-03T10:51:08;15.23;;;3.28;;
10517;SDS011;5307;42.548;22.968;2022-11-03T10:53:37;13.80;;;4.25;;
10517;SDS011;5307;42.548;22.968;2022-11-03T10:56:06;12.13;;;3.60;;
10517;SDS011;5307;42.548;22.968;2022-11-03T10:58:33;16.13;;;3.55;;
10517;SDS011;5307;42.548;22.968;2022-11-03T11:01:02;14.38;;;3.63;;
10517;SDS011;5307;42.548;22.968;2022-11-03T11:03:31;10.38;;;3.30;;
10517;SDS011;5307;42.548;22.968;2022-11-03T11:06:15;12.93;;;3.53;;
10517;SDS011;5307;42.548;22.968;2022-11-03T11:08:45;14.10;;;3.80;;
10517;SDS011;5307;42.548;22.968;2022-11-03T11:11:13;13.70;;;3.42;;
10517;SDS011;5307;42.548;22.968;2022-11-03T11:13:41;17.40;;;3.90;;
10517;SDS011;5307;42.548;22.968;2022-11-03T11:19:10;14.65;;;4.60;;
10517;SDS011;5307;42.548;22.968;2022-11-03T11:33:47;18.17;;;4.68;;
10517;SDS011;5307;42.548;22.968;2022-11-03T11:36:20;14.48;;;3.90;;
10517;SDS011;5307;42.548;22.968;2022-11-03T11:38:52;14.85;;;3.55;;
10517;SDS011;5307;42.548;22.968;2022-11-03T11:51:24;10.95;;;3.53;;
10517;SDS011;5307;42.548;22.968;2022-11-03T11:53:51;9.40;;;2.83;;
10517;SDS011;5307;42.548;22.968;2022-11-03T11:56:18;10.02;;;3.20;;
10517;SDS011;5307;42.548;22.968;2022-11-03T11:58:46;13.15;;;3.42;;
10517;SDS011;5307;42.548;22.968;2022-11-03T12:01:19;8.68;;;2.65;;
10517;SDS011;5307;42.548;22.968;2022-11-03T12:03:50;15.50;;;3.95;;
10517;SDS011;5307;42.548;22.968;2022-11-03T12:06:31;9.40;;;2.65;;
10517;SDS011;5307;42.548;22.968;2022-11-03T12:09:05;9.57;;;2.65;;
10517;SDS011;5307;42.548;22.968;2022-11-03T12:11:39;11.30;;;2.85;;
10517;SDS011;5307;42.548;22.968;2022-11-03T12:14:19;10.38;;;3.28;;
10517;SDS011;5307;42.548;22.968;2022-11-03T12:16:47;8.40;;;2.60;;
10517;SDS011;5307;42.548;22.968;2022-11-03T12:28:01;7.07;;;2.50;;
10517;SDS011;5307;42.548;22.968;2022-11-03T12:30:28;9.55;;;2.80;;
10517;SDS011;5307;42.548;22.968;2022-11-03T12:32:55;7.55;;;2.40;;
10517;SDS011;5307;42.548;22.968;2022-11-03T12:35:21;10.27;;;2.50;;
10517;SDS011;5307;42.548;22.968;2022-11-03T12:37:48;10.75;;;2.60;;
10517;SDS011;5307;42.548;22.968;2022-11-03T12:40:15;8.63;;;2.67;;
10517;SDS011;5307;42.548;22.968;2022-11-03T12:42:43;8.18;;;2.30;;
10517;SDS011;5307;42.548;22.968;2022-11-03T12:45:10;8.35;;;2.40;;
10517;SDS011;5307;42.548;22.968;2022-11-03T12:47:38;7.65;;;2.33;;
10517;SDS011;5307;42.548;22.968;2022-11-03T12:50:06;6.82;;;2.40;;
10517;SDS011;5307;42.548;22.968;2022-11-03T12:52:34;10.68;;;2.47;;
10517;SDS011;5307;42.548;22.968;2022-11-03T12:55:00;11.77;;;2.50;;
10517;SDS011;5307;42.548;22.968;2022-11-03T12:57:27;8.85;;;2.40;;
10517;SDS011;5307;42.548;22.968;2022-11-03T12:59:55;14.93;;;3.28;;
10517;SDS011;5307;42.548;22.968;2022-11-03T13:02:22;10.18;;;2.75;;
10517;SDS011;5307;42.548;22.968;2022-11-03T13:04:49;10.75;;;2.85;;
10517;SDS011;5307;42.548;22.968;2022-11-03T13:07:16;9.35;;;2.80;;
10517;SDS011;5307;42.548;22.968;2022-11-03T13:09:42;13.68;;;2.35;;
10517;SDS011;5307;42.548;22.968;2022-11-03T13:12:10;7.65;;;2.80;;
10517;SDS011;5307;42.548;22.968;2022-11-03T13:14:56;9.95;;;2.83;;
10517;SDS011;5307;42.548;22.968;2022-11-03T13:17:23;7.28;;;2.85;;
10517;SDS011;5307;42.548;22.968;2022-11-03T13:19:50;10.77;;;2.58;;
10517;SDS011;5307;42.548;22.968;2022-11-03T13:22:17;15.38;;;2.92;;
10517;SDS011;5307;42.548;22.968;2022-11-03T13:24:44;8.55;;;3.28;;
10517;SDS011;5307;42.548;22.968;2022-11-03T13:27:10;8.90;;;2.88;;
10517;SDS011;5307;42.548;22.968;2022-11-03T13:29:37;6.20;;;3.00;;
10517;SDS011;5307;42.548;22.968;2022-11-03T13:32:06;9.23;;;3.10;;
10517;SDS011;5307;42.548;22.968;2022-11-03T13:34:33;6.95;;;2.33;;
10517;SDS011;5307;42.548;22.968;2022-11-03T13:37:00;7.82;;;2.67;;
10517;SDS011;5307;42.548;22.968;2022-11-03T13:39:28;15.25;;;3.15;;
10517;SDS011;5307;42.548;22.968;2022-11-03T13:41:55;19.02;;;3.58;;
10517;SDS011;5307;42.548;22.968;2022-11-03T13:44:22;14.38;;;3.17;;
10517;SDS011;5307;42.548;22.968;2022-11-03T13:46:49;16.63;;;3.10;;
10517;SDS011;5307;42.548;22.968;2022-11-03T13:49:17;15.68;;;3.28;;
10517;SDS011;5307;42.548;22.968;2022-11-03T13:51:45;10.95;;;3.45;;
10517;SDS011;5307;42.548;22.968;2022-11-03T13:54:12;35.53;;;5.03;;
10517;SDS011;5307;42.548;22.968;2022-11-03T13:56:39;37.80;;;5.57;;
10517;SDS011;5307;42.548;22.968;2022-11-03T13:59:06;26.55;;;3.60;;
10517;SDS011;5307;42.548;22.968;2022-11-03T14:01:33;12.23;;;3.22;;
10517;SDS011;5307;42.548;22.968;2022-11-03T14:04:00;29.65;;;4.93;;
10517;SDS011;5307;42.548;22.968;2022-11-03T14:06:28;21.17;;;5.75;;
10517;SDS011;5307;42.548;22.968;2022-11-03T14:08:55;38.83;;;6.38;;
10517;SDS011;5307;42.548;22.968;2022-11-03T14:11:22;15.43;;;4.65;;
10517;SDS011;5307;42.548;22.968;2022-11-03T14:14:06;17.98;;;4.85;;
10517;SDS011;5307;42.548;22.968;2022-11-03T14:16:32;25.55;;;4.82;;
10517;SDS011;5307;42.548;22.968;2022-11-03T14:19:00;29.77;;;6.75;;
10517;SDS011;5307;42.548;22.968;2022-11-03T14:21:26;25.75;;;5.35;;
10517;SDS011;5307;42.548;22.968;2022-11-03T14:23:55;47.80;;;6.28;;
10517;SDS011;5307;42.548;22.968;2022-11-03T14:26:21;65.22;;;7.18;;
10517;SDS011;5307;42.548;22.968;2022-11-03T14:28:48;60.47;;;9.50;;
10517;SDS011;5307;42.548;22.968;2022-11-03T14:31:15;74.35;;;9.10;;
10517;SDS011;5307;42.548;22.968;2022-11-03T14:33:42;74.53;;;8.98;;
10517;SDS011;5307;42.548;22.968;2022-11-03T14:36:09;46.40;;;7.43;;
10517;SDS011;5307;42.548;22.968;2022-11-03T14:38:37;40.03;;;7.38;;
10517;SDS011;5307;42.548;22.968;2022-11-03T14:41:04;39.33;;;5.78;;
10517;SDS011;5307;42.548;22.968;2022-11-03T14:43:48;54.15;;;6.38;;
10517;SDS011;5307;42.548;22.968;2022-11-03T14:46:15;51.55;;;6.35;;
10517;SDS011;5307;42.548;22.968;2022-11-03T14:48:41;85.93;;;7.78;;
10517;SDS011;5307;42.548;22.968;2022-11-03T14:51:08;79.05;;;11.70;;
10517;SDS011;5307;42.548;22.968;2022-11-03T14:53:36;61.55;;;6.45;;
10517;SDS011;5307;42.548;22.968;2022-11-03T14:56:03;29.95;;;5.10;;
10517;SDS011;5307;42.548;22.968;2022-11-03T14:58:30;31.92;;;6.47;;
10517;SDS011;5307;42.548;22.968;2022-11-03T15:00:57;45.15;;;4.95;;
10517;SDS011;5307;42.548;22.968;2022-11-03T15:03:24;37.33;;;5.32;;
10517;SDS011;5307;42.548;22.968;2022-11-03T15:05:51;29.50;;;5.30;;
10517;SDS011;5307;42.548;22.968;2022-11-03T15:08:20;31.65;;;5.32;;
10517;SDS011;5307;42.548;22.968;2022-11-03T15:10:49;37.13;;;7.05;;
10517;SDS011;5307;42.548;22.968;2022-11-03T15:13:17;24.02;;;7.53;;
10517;SDS011;5307;42.548;22.968;2022-11-03T15:15:43;53.75;;;9.02;;
10517;SDS011;5307;42.548;22.968;2022-11-03T15:18:10;32.05;;;7.00;;
10517;SDS011;5307;42.548;22.968;2022-11-03T15:20:37;42.67;;;6.78;;
10517;SDS011;5307;42.548;22.968;2022-11-03T15:23:04;34.88;;;6.53;;
10517;SDS011;5307;42.548;22.968;2022-11-03T15:25:32;23.75;;;5.65;;
10517;SDS011;5307;42.548;22.968;2022-11-03T15:28:00;17.80;;;5.72;;
10517;SDS011;5307;42.548;22.968;2022-11-03T15:30:27;31.35;;;6.32;;
10517;SDS011;5307;42.548;22.968;2022-11-03T15:32:54;15.82;;;5.13;;
10517;SDS011;5307;42.548;22.968;2022-11-03T15:35:22;22.58;;;5.30;;